sensor_id;sensor_type;location;lat;lon;timestamp;pressure;altitude;pressure_sealevel;temperature;humidity
83836;BME280;73859;40.830;43.828;2024-01-11T00:00:35;83971.59;;;-0.67;59.29
83836;BME280;73859;40.830;43.828;2024-01-11T00:03:03;83960.75;;;-0.68;59.93
83836;BME280;73859;40.830;43.828;2024-01-11T00:05:31;83970.56;;;-0.75;59.29
83836;BME280;73859;40.830;43.828;2024-01-11T00:07:58;83908.59;;;-1.24;59.85
83836;BME280;73859;40.830;43.828;2024-01-11T00:10:26;83969.63;;;-0.78;59.66
83836;BME280;73859;40.830;43.828;2024-01-11T00:12:53;83971.50;;;-0.73;59.61
83836;BME280;73859;40.830;43.828;2024-01-11T00:15:20;83963.22;;;-0.73;59.34
83836;BME280;73859;40.830;43.828;2024-01-11T00:17:48;83968.44;;;-0.62;59.26
83836;BME280;73859;40.830;43.828;2024-01-11T00:20:16;83971.66;;;-0.62;59.10
83836;BME280;73859;40.830;43.828;2024-01-11T00:22:43;83957.97;;;-0.70;59.13
83836;BME280;73859;40.830;43.828;2024-01-11T00:25:11;83971.03;;;-0.57;59.32
83836;BME280;73859;40.830;43.828;2024-01-11T00:27:38;83975.59;;;-0.61;60.23
83836;BME280;73859;40.830;43.828;2024-01-11T00:30:06;83962.72;;;-0.77;59.96
83836;BME280;73859;40.830;43.828;2024-01-11T00:32:34;83970.28;;;-0.63;59.99
83836;BME280;73859;40.830;43.828;2024-01-11T00:35:02;83948.81;;;-0.82;59.69
83836;BME280;73859;40.830;43.828;2024-01-11T00:37:30;83970.38;;;-0.72;59.55
83836;BME280;73859;40.830;43.828;2024-01-11T00:39:57;83858.06;;;-1.62;59.99
83836;BME280;73859;40.830;43.828;2024-01-11T00:42:24;83858.84;;;-1.71;59.37
83836;BME280;73859;40.830;43.828;2024-01-11T00:44:52;83868.47;;;-1.75;60.57
83836;BME280;73859;40.830;43.828;2024-01-11T00:47:19;83971.72;;;-1.11;60.14
83836;BME280;73859;40.830;43.828;2024-01-11T00:49:47;83970.97;;;-1.17;60.22
83836;BME280;73859;40.830;43.828;2024-01-11T00:52:14;83970.00;;;-1.20;60.73
83836;BME280;73859;40.830;43.828;2024-01-11T00:54:41;83970.44;;;-1.21;60.90
83836;BME280;73859;40.830;43.828;2024-01-11T00:57:09;83980.03;;;-1.11;60.61
83836;BME280;73859;40.830;43.828;2024-01-11T00:59:36;83968.06;;;-1.10;60.77
83836;BME280;73859;40.830;43.828;2024-01-11T01:02:03;83969.97;;;-1.05;60.82
83836;BME280;73859;40.830;43.828;2024-01-11T01:04:31;83954.34;;;-0.98;60.36
83836;BME280;73859;40.830;43.828;2024-01-11T01:06:58;83849.25;;;-1.67;60.42
83836;BME280;73859;40.830;43.828;2024-01-11T01:09:26;83862.25;;;-1.59;60.68
83836;BME280;73859;40.830;43.828;2024-01-11T01:11:53;83934.50;;;-1.00;60.50
83836;BME280;73859;40.830;43.828;2024-01-11T01:14:20;83930.13;;;-0.99;60.29
83836;BME280;73859;40.830;43.828;2024-01-11T01:16:48;83891.53;;;-1.23;60.47
83836;BME280;73859;40.830;43.828;2024-01-11T01:22:37;83890.53;;;-1.31;60.34
83836;BME280;73859;40.830;43.828;2024-01-11T01:25:05;83889.31;;;-1.36;60.44
83836;BME280;73859;40.830;43.828;2024-01-11T01:27:33;83933.56;;;-1.02;60.08
83836;BME280;73859;40.830;43.828;2024-01-11T01:30:02;83827.94;;;-1.75;59.92
83836;BME280;73859;40.830;43.828;2024-01-11T01:32:30;83919.19;;;-1.05;60.12
83836;BME280;73859;40.830;43.828;2024-01-11T01:35:24;83962.25;;;-0.76;60.36
83836;BME280;73859;40.830;43.828;2024-01-11T01:37:52;83851.91;;;-1.56;59.48
83836;BME280;73859;40.830;43.828;2024-01-11T01:40:19;83898.03;;;-1.37;59.79
83836;BME280;73859;40.830;43.828;2024-01-11T01:42:48;83940.16;;;-1.10;60.48
83836;BME280;73859;40.830;43.828;2024-01-11T01:45:15;83933.78;;;-1.20;60.40
83836;BME280;73859;40.830;43.828;2024-01-11T01:47:44;83952.38;;;-1.09;61.39
83836;BME280;73859;40.830;43.828;2024-01-11T01:50:13;83827.56;;;-2.03;61.26
83836;BME280;73859;40.830;43.828;2024-01-11T01:52:42;83927.06;;;-1.38;61.32
83836;BME280;73859;40.830;43.828;2024-01-11T01:55:11;83953.56;;;-1.24;60.71
83836;BME280;73859;40.830;43.828;2024-01-11T02:00:40;83922.72;;;-1.52;61.05
83836;BME280;73859;40.830;43.828;2024-01-11T02:03:08;83945.97;;;-1.24;62.01
83836;BME280;73859;40.830;43.828;2024-01-11T02:05:36;83782.81;;;-2.40;61.45
83836;BME280;73859;40.830;43.828;2024-01-11T02:08:06;83881.44;;;-1.73;61.08
83836;BME280;73859;40.830;43.828;2024-01-11T02:10:37;83937.59;;;-1.45;60.94
83836;BME280;73859;40.830;43.828;2024-01-11T02:13:04;83827.50;;;-2.23;61.18
83836;BME280;73859;40.830;43.828;2024-01-11T02:15:36;83877.44;;;-1.94;61.74
83836;BME280;73859;40.830;43.828;2024-01-11T02:18:04;83869.94;;;-2.03;61.84
83836;BME280;73859;40.830;43.828;2024-01-11T02:20:32;83878.81;;;-1.93;61.79
83836;BME280;73859;40.830;43.828;2024-01-11T02:23:05;83890.09;;;-1.79;61.95
83836;BME280;73859;40.830;43.828;2024-01-11T02:25:33;83828.28;;;-2.31;61.39
83836;BME280;73859;40.830;43.828;2024-01-11T02:28:01;83890.53;;;-1.81;61.78
83836;BME280;73859;40.830;43.828;2024-01-11T02:30:28;83862.41;;;-1.98;61.26
83836;BME280;73859;40.830;43.828;2024-01-11T02:32:56;83934.63;;;-1.43;60.99
83836;BME280;73859;40.830;43.828;2024-01-11T02:35:24;83937.94;;;-1.37;62.05
83836;BME280;73859;40.830;43.828;2024-01-11T02:37:53;83774.09;;;-2.54;61.37
83836;BME280;73859;40.830;43.828;2024-01-11T02:40:21;83842.69;;;-2.08;61.05
83836;BME280;73859;40.830;43.828;2024-01-11T02:42:49;83936.88;;;-1.45;60.91
83836;BME280;73859;40.830;43.828;2024-01-11T02:45:17;83883.38;;;-1.82;60.63
83836;BME280;73859;40.830;43.828;2024-01-11T02:47:45;83861.53;;;-1.94;60.67
83836;BME280;73859;40.830;43.828;2024-01-11T02:50:13;83851.50;;;-2.18;60.58
83836;BME280;73859;40.830;43.828;2024-01-11T02:52:41;83936.41;;;-1.64;60.97
83836;BME280;73859;40.830;43.828;2024-01-11T02:55:08;83889.16;;;-2.11;61.22
83836;BME280;73859;40.830;43.828;2024-01-11T02:57:36;83893.00;;;-2.16;61.67
83836;BME280;73859;40.830;43.828;2024-01-11T03:00:04;83806.03;;;-2.86;61.52
83836;BME280;73859;40.830;43.828;2024-01-11T03:02:32;83876.41;;;-2.31;61.69
83836;BME280;73859;40.830;43.828;2024-01-11T03:05:00;83846.63;;;-2.51;62.08
83836;BME280;73859;40.830;43.828;2024-01-11T03:07:27;83885.84;;;-2.17;61.79
83836;BME280;73859;40.830;43.828;2024-01-11T03:09:56;83867.41;;;-2.18;61.13
83836;BME280;73859;40.830;43.828;2024-01-11T03:12:24;83754.91;;;-2.90;61.28
83836;BME280;73859;40.830;43.828;2024-01-11T03:14:53;83917.44;;;-1.69;61.08
83836;BME280;73859;40.830;43.828;2024-01-11T03:17:20;83826.13;;;-2.38;61.00
83836;BME280;73859;40.830;43.828;2024-01-11T03:19:48;83921.38;;;-1.68;61.15
83836;BME280;73859;40.830;43.828;2024-01-11T03:22:16;83916.19;;;-1.59;60.69
83836;BME280;73859;40.830;43.828;2024-01-11T03:24:43;83898.56;;;-1.68;61.03
83836;BME280;73859;40.830;43.828;2024-01-11T03:27:10;83905.53;;;-1.63;60.53
83836;BME280;73859;40.830;43.828;2024-01-11T03:29:38;83929.09;;;-1.42;60.25
83836;BME280;73859;40.830;43.828;2024-01-11T03:32:06;83885.09;;;-1.74;60.04
83836;BME280;73859;40.830;43.828;2024-01-11T03:34:33;83917.78;;;-1.61;59.86
83836;BME280;73859;40.830;43.828;2024-01-11T03:37:01;83854.75;;;-2.18;59.37
83836;BME280;73859;40.830;43.828;2024-01-11T03:39:29;83865.22;;;-2.39;59.83
83836;BME280;73859;40.830;43.828;2024-01-11T03:41:56;83939.66;;;-2.22;60.01
83836;BME280;73859;40.830;43.828;2024-01-11T03:44:23;83856.25;;;-3.08;60.78
83836;BME280;73859;40.830;43.828;2024-01-11T03:46:51;83906.25;;;-3.03;62.38
83836;BME280;73859;40.830;43.828;2024-01-11T03:49:18;83908.25;;;-3.07;62.42
83836;BME280;73859;40.830;43.828;2024-01-11T03:51:46;83836.75;;;-3.55;63.47
83836;BME280;73859;40.830;43.828;2024-01-11T03:54:13;83922.28;;;-3.06;63.30
83836;BME280;73859;40.830;43.828;2024-01-11T03:56:41;83950.69;;;-2.87;63.08
83836;BME280;73859;40.830;43.828;2024-01-11T03:59:10;83847.19;;;-3.62;63.63
83836;BME280;73859;40.830;43.828;2024-01-11T04:01:42;83890.13;;;-3.29;63.37
83836;BME280;73859;40.830;43.828;2024-01-11T04:04:10;83941.06;;;-2.98;63.77
83836;BME280;73859;40.830;43.828;2024-01-11T04:06:38;83959.41;;;-2.88;63.53
83836;BME280;73859;40.830;43.828;2024-01-11T04:09:05;83873.25;;;-3.56;63.87
83836;BME280;73859;40.830;43.828;2024-01-11T04:11:34;83882.09;;;-3.52;64.45
83836;BME280;73859;40.830;43.828;2024-01-11T04:14:02;83962.13;;;-2.92;65.12
83836;BME280;73859;40.830;43.828;2024-01-11T04:16:29;83922.25;;;-3.21;64.30
83836;BME280;73859;40.830;43.828;2024-01-11T04:18:57;83901.09;;;-3.32;64.00
83836;BME280;73859;40.830;43.828;2024-01-11T04:21:26;83932.13;;;-3.08;62.69
83836;BME280;73859;40.830;43.828;2024-01-11T04:23:57;83931.25;;;-3.05;62.91
83836;BME280;73859;40.830;43.828;2024-01-11T04:26:25;83920.22;;;-3.17;62.71
83836;BME280;73859;40.830;43.828;2024-01-11T04:28:53;83925.41;;;-3.11;63.21
83836;BME280;73859;40.830;43.828;2024-01-11T04:31:24;83931.25;;;-3.05;63.83
83836;BME280;73859;40.830;43.828;2024-01-11T04:33:51;83951.72;;;-2.94;63.63
83836;BME280;73859;40.830;43.828;2024-01-11T04:36:19;83888.16;;;-3.34;63.16
83836;BME280;73859;40.830;43.828;2024-01-11T04:38:47;83919.44;;;-2.99;64.19
83836;BME280;73859;40.830;43.828;2024-01-11T04:41:15;83746.13;;;-4.33;63.18
83836;BME280;73859;40.830;43.828;2024-01-11T04:43:43;83868.75;;;-3.28;63.44
83836;BME280;73859;40.830;43.828;2024-01-11T04:46:19;83882.13;;;-3.13;63.09
83836;BME280;73859;40.830;43.828;2024-01-11T04:48:48;83882.81;;;-3.13;63.54
83836;BME280;73859;40.830;43.828;2024-01-11T04:51:19;83874.06;;;-3.26;63.13
83836;BME280;73859;40.830;43.828;2024-01-11T04:53:47;83981.28;;;-2.62;62.83
83836;BME280;73859;40.830;43.828;2024-01-11T04:56:16;83927.41;;;-3.15;62.82
83836;BME280;73859;40.830;43.828;2024-01-11T04:58:44;83979.59;;;-2.79;63.54
83836;BME280;73859;40.830;43.828;2024-01-11T05:01:16;83985.78;;;-2.80;63.52
83836;BME280;73859;40.830;43.828;2024-01-11T05:03:45;83983.38;;;-2.75;63.80
83836;BME280;73859;40.830;43.828;2024-01-11T05:06:16;83980.34;;;-2.64;64.27
83836;BME280;73859;40.830;43.828;2024-01-11T05:08:46;83973.44;;;-2.64;63.65
83836;BME280;73859;40.830;43.828;2024-01-11T05:11:18;83981.78;;;-2.49;63.27
83836;BME280;73859;40.830;43.828;2024-01-11T05:13:46;83987.47;;;-2.39;63.35
83836;BME280;73859;40.830;43.828;2024-01-11T05:16:20;83985.38;;;-2.26;63.46
83836;BME280;73859;40.830;43.828;2024-01-11T05:18:48;83985.31;;;-2.17;63.05
83836;BME280;73859;40.830;43.828;2024-01-11T05:21:16;83988.06;;;-2.06;63.14
83836;BME280;73859;40.830;43.828;2024-01-11T05:23:43;83976.97;;;-1.93;63.17
83836;BME280;73859;40.830;43.828;2024-01-11T05:26:13;83983.34;;;-1.83;62.57
83836;BME280;73859;40.830;43.828;2024-01-11T05:28:40;83952.94;;;-1.98;62.52
83836;BME280;73859;40.830;43.828;2024-01-11T05:31:12;83962.63;;;-1.82;62.43
83836;BME280;73859;40.830;43.828;2024-01-11T05:33:40;83992.25;;;-1.59;62.12
83836;BME280;73859;40.830;43.828;2024-01-11T05:36:08;83982.47;;;-1.51;61.73
83836;BME280;73859;40.830;43.828;2024-01-11T05:38:37;83983.50;;;-1.43;61.92
83836;BME280;73859;40.830;43.828;2024-01-11T05:41:05;83888.81;;;-2.04;61.90
83836;BME280;73859;40.830;43.828;2024-01-11T05:43:33;83961.47;;;-1.37;61.53
83836;BME280;73859;40.830;43.828;2024-01-11T05:46:00;83939.19;;;-1.48;61.48
83836;BME280;73859;40.830;43.828;2024-01-11T05:48:29;83896.88;;;-1.71;61.15
83836;BME280;73859;40.830;43.828;2024-01-11T05:50:56;83968.13;;;-1.05;61.12
83836;BME280;73859;40.830;43.828;2024-01-11T05:53:24;83977.16;;;-0.83;61.17
83836;BME280;73859;40.830;43.828;2024-01-11T05:55:52;83983.22;;;-0.81;61.15
83836;BME280;73859;40.830;43.828;2024-01-11T05:58:21;83965.50;;;-0.75;60.41
83836;BME280;73859;40.830;43.828;2024-01-11T06:00:48;83954.06;;;-0.65;60.15
83836;BME280;73859;40.830;43.828;2024-01-11T06:03:16;83973.56;;;-0.36;59.91
83836;BME280;73859;40.830;43.828;2024-01-11T06:05:43;83986.97;;;-0.16;59.25
83836;BME280;73859;40.830;43.828;2024-01-11T06:08:11;83990.75;;;-0.06;59.35
83836;BME280;73859;40.830;43.828;2024-01-11T06:10:39;83992.06;;;0.10;59.35
83836;BME280;73859;40.830;43.828;2024-01-11T06:13:06;83983.56;;;0.13;58.65
83836;BME280;73859;40.830;43.828;2024-01-11T06:15:34;83972.91;;;0.15;58.25
83836;BME280;73859;40.830;43.828;2024-01-11T06:18:02;83955.19;;;0.20;58.17
83836;BME280;73859;40.830;43.828;2024-01-11T06:20:30;83951.59;;;0.32;58.21
83836;BME280;73859;40.830;43.828;2024-01-11T06:22:57;83966.63;;;0.62;58.38
83836;BME280;73859;40.830;43.828;2024-01-11T06:25:25;83955.84;;;0.72;58.52
83836;BME280;73859;40.830;43.828;2024-01-11T06:27:52;83885.78;;;0.14;58.71
83836;BME280;73859;40.830;43.828;2024-01-11T06:30:20;83899.13;;;0.35;58.18
83836;BME280;73859;40.830;43.828;2024-01-11T06:32:47;83970.56;;;0.94;57.83
83836;BME280;73859;40.830;43.828;2024-01-11T06:35:15;83978.28;;;1.05;57.48
83836;BME280;73859;40.830;43.828;2024-01-11T06:37:43;83976.22;;;1.09;57.89
83836;BME280;73859;40.830;43.828;2024-01-11T06:40:10;83965.13;;;1.12;57.94
83836;BME280;73859;40.830;43.828;2024-01-11T06:42:38;83886.84;;;0.65;57.17
83836;BME280;73859;40.830;43.828;2024-01-11T06:45:06;83965.00;;;1.32;56.94
83836;BME280;73859;40.830;43.828;2024-01-11T06:47:33;83961.84;;;1.48;56.69
83836;BME280;73859;40.830;43.828;2024-01-11T06:50:01;83965.81;;;1.55;56.22
83836;BME280;73859;40.830;43.828;2024-01-11T06:52:30;83970.97;;;1.66;56.11
83836;BME280;73859;40.830;43.828;2024-01-11T06:54:57;83958.47;;;1.74;55.29
83836;BME280;73859;40.830;43.828;2024-01-11T06:57:25;83866.03;;;1.14;54.86
83836;BME280;73859;40.830;43.828;2024-01-11T06:59:52;83893.00;;;1.43;54.76
83836;BME280;73859;40.830;43.828;2024-01-11T07:02:20;83908.13;;;1.58;54.64
83836;BME280;73859;40.830;43.828;2024-01-11T07:04:48;83959.53;;;2.10;53.49
83836;BME280;73859;40.830;43.828;2024-01-11T07:07:15;83949.53;;;2.06;53.85
83836;BME280;73859;40.830;43.828;2024-01-11T07:09:43;83935.19;;;2.14;54.28
83836;BME280;73859;40.830;43.828;2024-01-11T07:12:10;83850.47;;;1.77;53.30
83836;BME280;73859;40.830;43.828;2024-01-11T07:14:38;83958.44;;;2.55;54.71
83836;BME280;73859;40.830;43.828;2024-01-11T07:17:05;83943.38;;;2.57;53.59
83836;BME280;73859;40.830;43.828;2024-01-11T07:19:32;83913.19;;;2.39;53.21
83836;BME280;73859;40.830;43.828;2024-01-11T07:22:01;83935.47;;;2.61;53.34
83836;BME280;73859;40.830;43.828;2024-01-11T07:24:28;83949.66;;;2.78;53.37
83836;BME280;73859;40.830;43.828;2024-01-11T07:27:05;83954.53;;;2.82;52.93
83836;BME280;73859;40.830;43.828;2024-01-11T07:29:33;83949.88;;;2.86;52.98
83836;BME280;73859;40.830;43.828;2024-01-11T07:32:01;83929.66;;;2.88;51.63
83836;BME280;73859;40.830;43.828;2024-01-11T07:34:32;83934.56;;;2.97;53.40
83836;BME280;73859;40.830;43.828;2024-01-11T07:37:00;83946.16;;;2.98;53.79
83836;BME280;73859;40.830;43.828;2024-01-11T07:39:28;83945.47;;;2.92;53.18
83836;BME280;73859;40.830;43.828;2024-01-11T07:41:58;83939.66;;;2.86;52.99
83836;BME280;73859;40.830;43.828;2024-01-11T07:44:25;83900.44;;;2.67;53.69
83836;BME280;73859;40.830;43.828;2024-01-11T07:46:53;83926.19;;;2.96;53.15
83836;BME280;73859;40.830;43.828;2024-01-11T07:49:24;83857.03;;;2.56;53.27
83836;BME280;73859;40.830;43.828;2024-01-11T07:51:52;83928.03;;;3.07;52.51
83836;BME280;73859;40.830;43.828;2024-01-11T07:54:19;83861.44;;;2.72;53.04
83836;BME280;73859;40.830;43.828;2024-01-11T07:56:47;83907.34;;;3.27;53.03
83836;BME280;73859;40.830;43.828;2024-01-11T07:59:14;83916.13;;;3.43;52.62
83836;BME280;73859;40.830;43.828;2024-01-11T08:01:42;83882.94;;;3.26;52.24
83836;BME280;73859;40.830;43.828;2024-01-11T08:04:09;83904.75;;;3.38;52.12
83836;BME280;73859;40.830;43.828;2024-01-11T08:06:37;83897.78;;;3.33;51.61
83836;BME280;73859;40.830;43.828;2024-01-11T08:09:05;83890.06;;;3.50;49.52
83836;BME280;73859;40.830;43.828;2024-01-11T08:11:32;83883.13;;;3.45;49.92
83836;BME280;73859;40.830;43.828;2024-01-11T08:14:04;83876.63;;;3.44;49.95
83836;BME280;73859;40.830;43.828;2024-01-11T08:16:33;83879.59;;;3.54;50.20
83836;BME280;73859;40.830;43.828;2024-01-11T08:19:00;83884.22;;;3.66;48.79
83836;BME280;73859;40.830;43.828;2024-01-11T08:21:28;83792.44;;;2.94;50.58
83836;BME280;73859;40.830;43.828;2024-01-11T08:23:56;83881.16;;;3.73;50.94
83836;BME280;73859;40.830;43.828;2024-01-11T08:26:29;83751.34;;;2.92;50.21
83836;BME280;73859;40.830;43.828;2024-01-11T08:28:58;83790.47;;;3.28;49.67
83836;BME280;73859;40.830;43.828;2024-01-11T08:31:25;83844.84;;;3.80;50.77
83836;BME280;73859;40.830;43.828;2024-01-11T08:33:53;83737.53;;;3.17;51.21
83836;BME280;73859;40.830;43.828;2024-01-11T08:36:21;83825.75;;;3.92;51.48
83836;BME280;73859;40.830;43.828;2024-01-11T08:38:49;83855.50;;;4.31;50.82
83836;BME280;73859;40.830;43.828;2024-01-11T08:41:17;83783.47;;;3.86;50.89
83836;BME280;73859;40.830;43.828;2024-01-11T08:43:44;83844.31;;;4.34;50.70
83836;BME280;73859;40.830;43.828;2024-01-11T08:46:12;83835.97;;;4.33;51.01
83836;BME280;73859;40.830;43.828;2024-01-11T08:48:50;83839.44;;;4.36;51.43
83836;BME280;73859;40.830;43.828;2024-01-11T08:51:17;83733.84;;;3.59;51.51
83836;BME280;73859;40.830;43.828;2024-01-11T08:53:45;83837.34;;;4.34;51.46
83836;BME280;73859;40.830;43.828;2024-01-11T08:56:13;83838.94;;;4.37;51.69
83836;BME280;73859;40.830;43.828;2024-01-11T08:58:41;83819.22;;;4.32;51.87
83836;BME280;73859;40.830;43.828;2024-01-11T09:01:11;83754.38;;;3.89;51.62
83836;BME280;73859;40.830;43.828;2024-01-11T09:03:39;83837.63;;;4.61;51.49
83836;BME280;73859;40.830;43.828;2024-01-11T09:06:06;83828.00;;;4.67;52.00
83836;BME280;73859;40.830;43.828;2024-01-11T09:08:34;83833.19;;;4.91;51.64
83836;BME280;73859;40.830;43.828;2024-01-11T09:11:01;83834.63;;;5.11;50.61
83836;BME280;73859;40.830;43.828;2024-01-11T09:13:29;83813.97;;;5.03;51.05
83836;BME280;73859;40.830;43.828;2024-01-11T09:15:56;83824.81;;;5.15;50.09
83836;BME280;73859;40.830;43.828;2024-01-11T09:18:24;83822.03;;;5.13;49.79
83836;BME280;73859;40.830;43.828;2024-01-11T09:20:51;83808.72;;;5.14;49.93
83836;BME280;73859;40.830;43.828;2024-01-11T09:23:19;83805.84;;;5.23;49.53
83836;BME280;73859;40.830;43.828;2024-01-11T09:25:47;83801.41;;;5.24;49.75
83836;BME280;73859;40.830;43.828;2024-01-11T09:28:14;83751.56;;;5.01;49.92
83836;BME280;73859;40.830;43.828;2024-01-11T09:30:42;83803.75;;;5.46;48.71
83836;BME280;73859;40.830;43.828;2024-01-11T09:33:10;83695.22;;;4.76;49.21
83836;BME280;73859;40.830;43.828;2024-01-11T09:35:37;83684.69;;;4.80;49.12
83836;BME280;73859;40.830;43.828;2024-01-11T09:38:05;83659.38;;;4.71;49.13
83836;BME280;73859;40.830;43.828;2024-01-11T09:40:32;83778.19;;;5.78;49.12
83836;BME280;73859;40.830;43.828;2024-01-11T09:43:03;83783.06;;;6.00;48.46
83836;BME280;73859;40.830;43.828;2024-01-11T09:45:32;83783.19;;;6.26;48.68
83836;BME280;73859;40.830;43.828;2024-01-11T09:47:59;83781.19;;;6.51;47.62
83836;BME280;73859;40.830;43.828;2024-01-11T09:50:28;83715.31;;;6.22;47.21
83836;BME280;73859;40.830;43.828;2024-01-11T09:52:56;83715.09;;;6.20;47.55
83836;BME280;73859;40.830;43.828;2024-01-11T09:55:24;83770.22;;;6.51;47.62
83836;BME280;73859;40.830;43.828;2024-01-11T09:57:56;83617.25;;;5.28;47.43
83836;BME280;73859;40.830;43.828;2024-01-11T10:00:24;83745.94;;;6.01;47.26
83836;BME280;73859;40.830;43.828;2024-01-11T10:02:53;83670.53;;;5.35;48.63
83836;BME280;73859;40.830;43.828;2024-01-11T10:05:21;83747.59;;;5.80;48.87
83836;BME280;73859;40.830;43.828;2024-01-11T10:07:49;83745.59;;;5.73;49.40
83836;BME280;73859;40.830;43.828;2024-01-11T10:10:17;83739.47;;;5.76;49.19
83836;BME280;73859;40.830;43.828;2024-01-11T10:12:45;83614.00;;;4.90;48.92
83836;BME280;73859;40.830;43.828;2024-01-11T10:15:12;83735.88;;;5.84;48.17
83836;BME280;73859;40.830;43.828;2024-01-11T10:17:45;83732.41;;;6.01;47.98
83836;BME280;73859;40.830;43.828;2024-01-11T10:20:13;83710.81;;;6.09;46.40
83836;BME280;73859;40.830;43.828;2024-01-11T10:22:42;83692.44;;;6.50;46.35
83836;BME280;73859;40.830;43.828;2024-01-11T10:25:14;83645.81;;;6.72;45.49
83836;BME280;73859;40.830;43.828;2024-01-11T10:27:43;83686.81;;;7.30;44.04
83836;BME280;73859;40.830;43.828;2024-01-11T10:30:12;83592.69;;;7.01;43.37
83836;BME280;73859;40.830;43.828;2024-01-11T10:32:40;83696.88;;;8.22;43.01
83836;BME280;73859;40.830;43.828;2024-01-11T10:35:08;83709.56;;;8.33;43.29
83836;BME280;73859;40.830;43.828;2024-01-11T10:37:36;83700.03;;;8.49;42.57
83836;BME280;73859;40.830;43.828;2024-01-11T10:40:09;83700.09;;;8.15;42.58
83836;BME280;73859;40.830;43.828;2024-01-11T10:42:44;83687.41;;;7.83;43.36
83836;BME280;73859;40.830;43.828;2024-01-11T10:45:16;83684.81;;;7.50;42.70
83836;BME280;73859;40.830;43.828;2024-01-11T10:47:54;83689.91;;;7.16;41.73
83836;BME280;73859;40.830;43.828;2024-01-11T10:50:36;83667.88;;;6.94;42.83
83836;BME280;73859;40.830;43.828;2024-01-11T10:55:59;83680.69;;;7.07;43.21
83836;BME280;73859;40.830;43.828;2024-01-11T10:58:27;83680.91;;;7.09;44.30
83836;BME280;73859;40.830;43.828;2024-01-11T11:00:54;83681.88;;;7.19;44.01
83836;BME280;73859;40.830;43.828;2024-01-11T11:03:23;83564.88;;;6.66;44.00
83836;BME280;73859;40.830;43.828;2024-01-11T11:05:53;83568.28;;;6.95;43.05
83836;BME280;73859;40.830;43.828;2024-01-11T11:08:23;83663.91;;;7.87;42.90
83836;BME280;73859;40.830;43.828;2024-01-11T11:11:01;83660.59;;;7.79;41.89
83836;BME280;73859;40.830;43.828;2024-01-11T11:13:31;83568.88;;;7.01;42.47
83836;BME280;73859;40.830;43.828;2024-01-11T11:15:59;83653.19;;;7.15;42.91
83836;BME280;73859;40.830;43.828;2024-01-11T11:18:28;83659.66;;;6.82;44.20
83836;BME280;73859;40.830;43.828;2024-01-11T11:21:00;83651.81;;;6.49;44.12
83836;BME280;73859;40.830;43.828;2024-01-11T11:23:28;83661.03;;;6.44;44.33
83836;BME280;73859;40.830;43.828;2024-01-11T11:25:55;83655.56;;;6.34;44.57
83836;BME280;73859;40.830;43.828;2024-01-11T11:28:24;83654.38;;;6.22;44.07
83836;BME280;73859;40.830;43.828;2024-01-11T11:30:53;83636.94;;;6.02;45.33
83836;BME280;73859;40.830;43.828;2024-01-11T11:33:23;83633.97;;;5.98;45.50
83836;BME280;73859;40.830;43.828;2024-01-11T11:35:53;83630.91;;;6.00;45.38
83836;BME280;73859;40.830;43.828;2024-01-11T11:38:26;83624.03;;;6.08;45.26
83836;BME280;73859;40.830;43.828;2024-01-11T11:40:59;83626.59;;;6.08;45.29
83836;BME280;73859;40.830;43.828;2024-01-11T11:43:28;83620.56;;;6.05;45.13
83836;BME280;73859;40.830;43.828;2024-01-11T11:45:56;83621.06;;;6.04;45.50
83836;BME280;73859;40.830;43.828;2024-01-11T11:51:17;83618.09;;;6.13;44.77
83836;BME280;73859;40.830;43.828;2024-01-11T11:53:48;83617.81;;;6.16;45.73
83836;BME280;73859;40.830;43.828;2024-01-11T11:56:22;83605.66;;;6.17;45.52
83836;BME280;73859;40.830;43.828;2024-01-11T11:58:51;83606.38;;;6.17;45.56
83836;BME280;73859;40.830;43.828;2024-01-11T12:01:20;83614.75;;;6.18;45.55
83836;BME280;73859;40.830;43.828;2024-01-11T12:03:48;83608.53;;;6.13;45.62
83836;BME280;73859;40.830;43.828;2024-01-11T12:06:19;83518.03;;;5.36;46.11
83836;BME280;73859;40.830;43.828;2024-01-11T12:08:48;83613.44;;;5.98;46.17
83836;BME280;73859;40.830;43.828;2024-01-11T12:11:20;83522.47;;;5.22;45.98
83836;BME280;73859;40.830;43.828;2024-01-11T12:13:49;83542.44;;;5.42;46.14
83836;BME280;73859;40.830;43.828;2024-01-11T12:16:17;83606.75;;;5.76;46.20
83836;BME280;73859;40.830;43.828;2024-01-11T12:18:44;83610.69;;;5.77;46.24
83836;BME280;73859;40.830;43.828;2024-01-11T12:21:12;83613.28;;;5.77;46.46
83836;BME280;73859;40.830;43.828;2024-01-11T12:23:40;83591.09;;;5.61;46.40
83836;BME280;73859;40.830;43.828;2024-01-11T12:26:07;83561.41;;;5.53;46.56
83836;BME280;73859;40.830;43.828;2024-01-11T12:28:41;83611.16;;;5.95;46.26
83836;BME280;73859;40.830;43.828;2024-01-11T12:31:12;83620.19;;;5.82;46.33
83836;BME280;73859;40.830;43.828;2024-01-11T12:33:40;83603.47;;;5.63;46.72
83836;BME280;73859;40.830;43.828;2024-01-11T12:36:09;83605.72;;;5.53;47.15
83836;BME280;73859;40.830;43.828;2024-01-11T12:38:37;83612.25;;;5.35;47.57
83836;BME280;73859;40.830;43.828;2024-01-11T12:41:06;83517.63;;;4.50;47.75
83836;BME280;73859;40.830;43.828;2024-01-11T12:43:33;83587.25;;;4.85;47.95
83836;BME280;73859;40.830;43.828;2024-01-11T12:46:02;83594.81;;;4.97;48.11
83836;BME280;73859;40.830;43.828;2024-01-11T12:48:30;83593.69;;;4.92;48.83
83836;BME280;73859;40.830;43.828;2024-01-11T12:50:58;83598.94;;;4.81;48.75
83836;BME280;73859;40.830;43.828;2024-01-11T12:53:51;83592.88;;;4.84;48.56
83836;BME280;73859;40.830;43.828;2024-01-11T12:56:19;83595.16;;;4.87;49.14
83836;BME280;73859;40.830;43.828;2024-01-11T12:58:49;83595.16;;;4.87;49.01
83836;BME280;73859;40.830;43.828;2024-01-11T13:01:17;83587.53;;;4.82;49.45
83836;BME280;73859;40.830;43.828;2024-01-11T13:03:46;83589.25;;;4.74;49.73
83836;BME280;73859;40.830;43.828;2024-01-11T13:06:14;83591.34;;;4.75;49.61
83836;BME280;73859;40.830;43.828;2024-01-11T13:08:42;83592.31;;;4.72;49.66
83836;BME280;73859;40.830;43.828;2024-01-11T13:11:10;83591.63;;;4.72;49.67
83836;BME280;73859;40.830;43.828;2024-01-11T13:13:41;83471.16;;;3.84;49.80